createdAt,value
2018-03-25T00:00:02.422Z,96938.06
2018-03-25T00:02:31.452Z,96933.06
2018-03-25T00:04:59.714Z,96933.02
2018-03-25T00:07:28.025Z,96927.98
2018-03-25T00:09:56.284Z,96924.48
2018-03-25T00:12:24.540Z,96927.12
2018-03-25T00:14:52.811Z,96925.88
2018-03-25T00:17:21.070Z,96924.70
2018-03-25T00:19:50.095Z,96925.40
2018-03-25T00:22:18.360Z,96923.91
2018-03-25T00:24:46.659Z,96926.97
2018-03-25T00:27:14.924Z,96919.92
2018-03-25T00:29:43.181Z,96925.02
2018-03-25T00:32:11.455Z,96922.92
2018-03-25T00:34:39.724Z,96929.23
2018-03-25T00:37:08.767Z,96922.51
2018-03-25T00:39:37.024Z,96916.14
2018-03-25T00:42:05.286Z,96917.19
2018-03-25T00:44:33.557Z,96915.45
2018-03-25T00:47:01.814Z,96917.02
2018-03-25T00:49:30.879Z,96912.52
2018-03-25T00:51:59.176Z,96916.77
2018-03-25T00:54:28.200Z,96915.72
2018-03-25T00:56:56.455Z,96910.58
2018-03-25T00:59:25.555Z,96914.20
2018-03-25T01:01:54.574Z,96915.23
2018-03-25T01:04:22.837Z,96916.89
2018-03-25T01:06:51.112Z,96917.74
2018-03-25T01:09:19.367Z,96918.95
2018-03-25T01:11:48.394Z,96920.63
2018-03-25T01:14:16.668Z,96915.80
2018-03-25T01:16:44.940Z,96916.91
2018-03-25T01:19:13.205Z,96912.28
2018-03-25T01:21:41.465Z,96917.03
2018-03-25T01:24:10.492Z,96914.58
2018-03-25T01:26:38.753Z,96918.34
2018-03-25T01:29:07.005Z,96916.80
2018-03-25T01:31:36.035Z,96918.05
2018-03-25T01:34:04.300Z,96916.96
2018-03-25T01:36:32.563Z,96918.65
2018-03-25T01:39:00.843Z,96923.32
2018-03-25T01:41:29.869Z,96930.16
2018-03-25T01:43:58.923Z,96921.71
2018-03-25T01:46:27.956Z,96917.54
2018-03-25T01:48:56.203Z,96920.20
2018-03-25T01:51:24.471Z,96924.33
2018-03-25T01:53:52.783Z,96918.39
2018-03-25T01:56:21.064Z,96913.36
2018-03-25T01:58:49.375Z,96918.77
2018-03-25T02:01:17.654Z,96919.48
2018-03-25T02:03:45.927Z,96913.69
2018-03-25T02:06:14.257Z,96917.03
2018-03-25T02:08:42.521Z,96911.25
2018-03-25T02:11:10.842Z,96916.98
2018-03-25T02:13:39.191Z,96914.05
2018-03-25T02:16:07.556Z,96914.19
2018-03-25T02:18:35.907Z,96916.91
2018-03-25T02:21:05.870Z,96919.22
2018-03-25T02:23:34.217Z,96925.09
2018-03-25T02:26:02.603Z,96922.25
2018-03-25T02:28:30.979Z,96919.31
2018-03-25T02:30:59.340Z,96918.96
2018-03-25T02:33:27.640Z,96918.10
2018-03-25T02:35:55.909Z,96922.39
2018-03-25T02:38:24.201Z,96921.44
2018-03-25T02:40:52.482Z,96915.70
2018-03-25T02:43:20.774Z,96921.52
2018-03-25T02:45:49.063Z,96925.08
2018-03-25T02:48:17.337Z,96922.49
2018-03-25T02:50:45.609Z,96923.44
2018-03-25T02:53:13.885Z,96927.00
2018-03-25T02:55:42.167Z,96926.53
2018-03-25T02:58:10.440Z,96922.96
2018-03-25T03:00:38.704Z,96926.74
2018-03-25T03:03:06.988Z,96928.37
2018-03-25T03:05:35.256Z,96934.45
2018-03-25T03:08:03.524Z,96931.66
2018-03-25T03:10:31.817Z,96931.57
2018-03-25T03:13:00.090Z,96939.50
2018-03-25T03:15:28.355Z,96941.39
2018-03-25T03:17:56.639Z,96945.70
2018-03-25T03:20:24.944Z,96941.57
2018-03-25T03:22:53.207Z,96942.47
2018-03-25T03:25:21.499Z,96946.06
2018-03-25T03:27:49.775Z,96943.86
2018-03-25T03:30:18.085Z,96946.16
2018-03-25T03:32:46.348Z,96953.36
2018-03-25T03:35:15.428Z,96952.87
2018-03-25T03:37:43.712Z,96952.14
2018-03-25T03:40:12.760Z,96953.64
2018-03-25T03:42:41.791Z,96951.39
2018-03-25T03:45:10.081Z,96960.02
2018-03-25T03:47:39.136Z,96952.55
2018-03-25T03:50:07.409Z,96954.73
2018-03-25T03:52:35.697Z,96953.56
2018-03-25T03:55:03.963Z,96949.63
2018-03-25T03:57:32.237Z,96953.75
2018-03-25T04:00:00.526Z,96957.39
2018-03-25T04:02:28.868Z,96953.36
2018-03-25T04:04:57.145Z,96953.89
2018-03-25T04:07:25.424Z,96963.00
2018-03-25T04:09:53.684Z,96967.46
2018-03-25T04:12:21.971Z,96966.84
2018-03-25T04:14:50.233Z,96968.78
2018-03-25T04:17:18.516Z,96969.31
2018-03-25T04:19:46.778Z,96970.69
2018-03-25T04:22:15.061Z,96972.23
2018-03-25T04:24:43.358Z,96967.37
2018-03-25T04:27:11.619Z,96971.56
2018-03-25T04:29:39.958Z,96971.48
2018-03-25T04:32:08.184Z,96974.84
2018-03-25T04:34:36.457Z,96972.75
2018-03-25T04:37:04.767Z,96973.47
2018-03-25T04:39:33.014Z,96966.38
2018-03-25T04:42:01.284Z,96975.24
2018-03-25T04:44:29.571Z,96976.92
2018-03-25T04:46:57.832Z,96970.70
2018-03-25T04:49:26.100Z,96979.34
2018-03-25T04:51:54.405Z,96971.77
2018-03-25T04:54:22.671Z,96969.05
2018-03-25T04:56:50.952Z,96975.39
2018-03-25T04:59:19.275Z,96974.92
2018-03-25T05:01:47.501Z,96973.23
2018-03-25T05:04:15.780Z,96979.70
2018-03-25T05:06:44.075Z,96978.09
2018-03-25T05:09:12.355Z,96982.30
2018-03-25T05:11:40.631Z,96980.69
2018-03-25T05:14:08.920Z,96980.30
2018-03-25T05:16:37.204Z,96982.36
2018-03-25T05:19:05.484Z,96987.84
2018-03-25T05:21:33.773Z,96982.28
2018-03-25T05:24:02.075Z,96991.23
2018-03-25T05:26:30.369Z,96988.58
2018-03-25T05:28:58.672Z,96994.36
2018-03-25T05:31:28.448Z,96994.28
2018-03-25T05:33:56.738Z,96987.05
2018-03-25T05:36:25.012Z,96989.58
2018-03-25T05:38:53.315Z,96986.13
2018-03-25T05:41:21.576Z,96987.78
2018-03-25T05:43:49.839Z,96988.50
2018-03-25T05:46:18.122Z,96983.77
2018-03-25T05:48:46.385Z,96988.97
2018-03-25T05:51:14.667Z,96987.72
2018-03-25T05:53:42.931Z,97001.33
2018-03-25T05:56:11.200Z,96996.44
2018-03-25T05:58:39.488Z,96998.63
2018-03-25T06:01:07.775Z,97002.05
2018-03-25T06:03:36.039Z,97005.51
2018-03-25T06:06:04.320Z,97008.33
2018-03-25T06:08:32.582Z,97005.39
2018-03-25T06:11:00.875Z,97007.20
2018-03-25T06:13:29.152Z,97012.11
2018-03-25T06:15:57.435Z,97009.41
2018-03-25T06:18:25.692Z,97006.75
2018-03-25T06:20:53.965Z,97016.45
2018-03-25T06:23:22.250Z,97016.19
2018-03-25T06:25:50.500Z,97017.30
2018-03-25T06:28:18.772Z,97021.02
2018-03-25T06:30:47.836Z,97022.10
2018-03-25T06:33:16.094Z,97029.87
2018-03-25T06:35:44.367Z,97037.06
2018-03-25T06:38:12.633Z,97040.22
2018-03-25T06:40:40.932Z,97035.36
2018-03-25T06:43:09.192Z,97035.96
2018-03-25T06:45:37.455Z,97038.77
2018-03-25T06:48:05.722Z,97039.42
2018-03-25T06:50:33.969Z,97036.79
2018-03-25T06:53:03.005Z,97032.75
2018-03-25T06:55:31.288Z,97038.55
2018-03-25T06:57:59.635Z,97044.20
2018-03-25T07:00:27.958Z,97052.41
2018-03-25T07:02:56.266Z,97056.38
2018-03-25T07:05:25.366Z,97056.18
2018-03-25T07:07:53.706Z,97052.14
2018-03-25T07:10:22.031Z,97057.36
2018-03-25T07:12:50.383Z,97064.22
2018-03-25T07:15:19.480Z,97062.16
2018-03-25T07:17:48.572Z,97065.71
2018-03-25T07:20:17.681Z,97066.63
2018-03-25T07:22:46.017Z,97065.08
2018-03-25T07:25:15.138Z,97071.05
2018-03-25T07:27:44.262Z,97072.80
2018-03-25T07:30:12.632Z,97071.53
2018-03-25T07:32:40.987Z,97078.81
2018-03-25T07:35:10.138Z,97073.02
2018-03-25T07:37:38.523Z,97081.06
2018-03-25T07:40:06.818Z,97073.45
2018-03-25T07:42:35.101Z,97083.59
2018-03-25T07:45:03.365Z,97085.27
2018-03-25T07:47:31.624Z,97085.56
2018-03-25T07:50:00.009Z,97090.50
2018-03-25T07:52:28.261Z,97091.16
2018-03-25T07:54:56.536Z,97089.69
2018-03-25T07:57:24.796Z,97088.91
2018-03-25T07:59:53.820Z,97089.87
2018-03-25T08:02:22.135Z,97097.16
2018-03-25T08:04:50.468Z,97085.80
2018-03-25T08:07:18.796Z,97098.95
2018-03-25T08:09:47.892Z,97098.94
2018-03-25T08:12:16.195Z,97091.42
2018-03-25T08:14:44.550Z,97099.46
2018-03-25T08:17:12.890Z,97099.48
2018-03-25T08:19:42.038Z,97100.38
2018-03-25T08:22:11.146Z,97101.20
2018-03-25T08:24:39.492Z,97096.11
2018-03-25T08:27:09.316Z,97102.05
2018-03-25T08:29:38.426Z,97094.02
2018-03-25T08:32:06.734Z,97100.79
2018-03-25T08:34:35.020Z,97105.02
2018-03-25T08:37:03.295Z,97102.05
2018-03-25T08:39:31.697Z,97099.10
2018-03-25T08:41:59.954Z,97107.98
2018-03-25T08:44:28.201Z,97111.76
2018-03-25T08:46:56.523Z,97110.05
2018-03-25T08:49:24.783Z,97110.91
2018-03-25T08:51:53.047Z,97112.98
2018-03-25T08:54:21.318Z,97109.55
2018-03-25T08:56:49.571Z,97107.33
2018-03-25T08:59:18.632Z,97106.52
2018-03-25T09:01:46.888Z,97114.11
2018-03-25T09:04:15.143Z,97105.90
2018-03-25T09:06:43.420Z,97107.41
2018-03-25T09:09:11.676Z,97108.19
2018-03-25T09:11:40.720Z,97105.89
2018-03-25T09:14:08.979Z,97110.63
2018-03-25T09:16:37.420Z,97094.75
2018-03-25T09:19:06.461Z,97098.05
2018-03-25T09:21:34.736Z,97107.55
2018-03-25T09:24:03.084Z,97105.21
2018-03-25T09:26:31.361Z,97107.59
2018-03-25T09:28:59.637Z,97101.87
2018-03-25T09:31:27.891Z,97106.69
2018-03-25T09:33:56.936Z,97108.28
2018-03-25T09:36:25.202Z,97105.37
2018-03-25T09:38:53.463Z,97102.73
2018-03-25T09:41:21.741Z,97106.00
2018-03-25T09:43:50.024Z,97102.09
2018-03-25T09:46:18.279Z,97102.99
2018-03-25T09:48:46.561Z,97109.92
2018-03-25T09:51:14.847Z,97113.82
2018-03-25T09:53:43.118Z,97115.77
2018-03-25T09:56:11.435Z,97115.39
2018-03-25T09:58:39.717Z,97113.72
2018-03-25T10:01:14.454Z,97113.44
2018-03-25T10:03:42.724Z,97115.48
2018-03-25T10:06:10.999Z,97111.31
2018-03-25T10:08:39.290Z,97112.68
2018-03-25T10:11:07.568Z,97110.79
2018-03-25T10:13:35.837Z,97111.06
2018-03-25T10:16:04.138Z,97111.26
2018-03-25T10:18:33.169Z,97113.83
2018-03-25T10:21:01.429Z,97112.14
2018-03-25T10:23:29.707Z,97112.36
2018-03-25T10:25:59.644Z,97111.31
2018-03-25T10:28:27.908Z,97118.83
2018-03-25T10:30:56.195Z,97116.08
2018-03-25T10:33:24.508Z,97115.83
2018-03-25T10:35:52.768Z,97115.10
2018-03-25T10:38:21.063Z,97121.36
2018-03-25T10:40:49.319Z,97119.52
2018-03-25T10:43:17.604Z,97115.78
2018-03-25T10:45:45.871Z,97115.48
2018-03-25T10:48:14.215Z,97114.45
2018-03-25T10:50:42.471Z,97117.14
2018-03-25T10:53:10.739Z,97113.73
2018-03-25T10:55:39.789Z,97116.55
2018-03-25T10:58:08.055Z,97114.57
2018-03-25T11:00:36.335Z,97109.12
2018-03-25T11:03:04.631Z,97106.11
2018-03-25T11:05:33.032Z,97107.25
2018-03-25T11:08:02.191Z,97108.12
2018-03-25T11:10:30.482Z,97106.34
2018-03-25T11:12:58.744Z,97103.55
2018-03-25T11:15:27.049Z,97100.77
2018-03-25T11:17:56.088Z,97104.23
2018-03-25T11:20:24.359Z,97098.84
2018-03-25T11:22:52.628Z,97102.39
2018-03-25T11:25:20.932Z,97098.09
2018-03-25T11:27:49.216Z,97102.98
2018-03-25T11:30:17.479Z,97100.69
2018-03-25T11:32:45.748Z,97103.11
2018-03-25T11:35:14.074Z,97100.50
2018-03-25T11:37:42.335Z,97093.98
2018-03-25T11:40:10.612Z,97100.58
2018-03-25T11:42:38.974Z,97104.29
2018-03-25T11:45:07.463Z,97100.06
2018-03-25T11:47:35.761Z,97098.08
2018-03-25T11:50:04.035Z,97101.55
2018-03-25T11:52:32.290Z,97102.16
2018-03-25T11:55:00.555Z,97101.70
2018-03-25T11:57:28.837Z,97104.06
2018-03-25T11:59:57.196Z,97106.70
2018-03-25T12:02:25.467Z,97108.20
2018-03-25T12:04:53.754Z,97108.24
2018-03-25T12:07:22.047Z,97103.45
2018-03-25T12:09:50.325Z,97105.05
2018-03-25T12:12:18.601Z,97108.18
2018-03-25T12:14:46.871Z,97108.76
2018-03-25T12:17:15.135Z,97108.23
2018-03-25T12:19:43.411Z,97103.28
2018-03-25T12:22:11.688Z,97102.46
2018-03-25T12:24:39.949Z,97107.51
2018-03-25T12:27:08.244Z,97103.91
2018-03-25T12:29:36.507Z,97100.42
2018-03-25T12:32:04.769Z,97102.97
2018-03-25T12:34:33.048Z,97101.34
2018-03-25T12:37:01.361Z,97097.28
2018-03-25T12:39:29.600Z,97097.14
2018-03-25T12:41:57.888Z,97092.00
2018-03-25T12:44:26.141Z,97085.53
2018-03-25T12:46:54.409Z,97088.91
2018-03-25T12:49:23.452Z,97085.89
2018-03-25T12:51:51.709Z,97090.37
2018-03-25T12:54:19.970Z,97085.36
2018-03-25T12:56:48.253Z,97083.09
2018-03-25T12:59:16.520Z,97081.20
2018-03-25T13:01:44.784Z,97083.86
2018-03-25T13:04:14.032Z,97084.09
2018-03-25T13:06:42.289Z,97084.63
2018-03-25T13:09:10.548Z,97081.53
2018-03-25T13:11:38.829Z,97080.17
2018-03-25T13:14:07.098Z,97079.79
2018-03-25T13:16:35.360Z,97076.45
2018-03-25T13:19:04.406Z,97074.59
2018-03-25T13:21:32.668Z,97079.19
2018-03-25T13:24:00.925Z,97079.14
2018-03-25T13:26:29.215Z,97079.81
2018-03-25T13:28:57.528Z,97077.34
2018-03-25T13:31:25.737Z,97077.14
2018-03-25T13:33:54.776Z,97078.19
2018-03-25T13:36:23.043Z,97091.44
2018-03-25T13:38:51.311Z,97087.00
2018-03-25T13:41:19.589Z,97078.07
2018-03-25T13:43:47.843Z,97076.09
2018-03-25T13:46:16.115Z,97079.16
2018-03-25T13:48:44.411Z,97078.83
2018-03-25T13:51:12.668Z,97076.61
2018-03-25T13:53:40.940Z,97077.67
2018-03-25T13:56:09.989Z,97074.36
2018-03-25T13:58:38.250Z,97076.13
2018-03-25T14:01:06.533Z,97068.98
2018-03-25T14:03:34.793Z,97073.28
2018-03-25T14:06:03.056Z,97072.64
2018-03-25T14:08:32.091Z,97069.53
2018-03-25T14:11:00.355Z,97065.08
2018-03-25T14:13:28.615Z,97072.57
2018-03-25T14:15:56.896Z,97069.46
2018-03-25T14:18:25.159Z,97067.34
2018-03-25T14:20:53.429Z,97064.68
2018-03-25T14:23:21.845Z,97061.03
2018-03-25T14:25:50.087Z,97059.47
2018-03-25T14:28:18.358Z,97058.63
2018-03-25T14:30:46.633Z,97062.92
2018-03-25T14:33:14.896Z,97077.72
2018-03-25T14:35:43.937Z,97074.08
2018-03-25T14:38:12.219Z,97071.81
2018-03-25T14:40:40.502Z,97071.71
2018-03-25T14:43:08.837Z,97073.39
2018-03-25T14:45:37.228Z,97076.09
2018-03-25T14:48:05.614Z,97075.20
2018-03-25T14:50:33.963Z,97082.52
2018-03-25T14:53:02.254Z,97079.97
2018-03-25T14:55:30.517Z,97075.80
2018-03-25T14:57:58.803Z,97085.27
2018-03-25T15:00:27.060Z,97083.55
2018-03-25T15:02:55.332Z,97081.30
2018-03-25T15:05:23.713Z,97087.11
2018-03-25T15:07:51.981Z,97084.23
2018-03-25T15:10:21.047Z,97081.81
2018-03-25T15:12:49.343Z,97091.61
2018-03-25T15:15:18.396Z,97088.55
2018-03-25T15:17:46.681Z,97093.53
2018-03-25T15:20:14.952Z,97095.53
2018-03-25T15:22:43.231Z,97102.78
2018-03-25T15:25:11.513Z,97099.94
2018-03-25T15:27:39.780Z,97105.88
2018-03-25T15:30:08.064Z,97104.91
2018-03-25T15:32:36.344Z,97112.80
2018-03-25T15:35:04.625Z,97113.95
2018-03-25T15:37:32.906Z,97114.16
2018-03-25T15:40:01.185Z,97113.26
2018-03-25T15:42:29.459Z,97118.13
2018-03-25T15:44:57.736Z,97130.66
2018-03-25T15:47:26.036Z,97125.91
2018-03-25T15:49:55.160Z,97139.52
2018-03-25T15:52:23.469Z,97138.01
2018-03-25T15:54:51.785Z,97132.21
2018-03-25T15:57:20.830Z,97140.79
2018-03-25T15:59:49.165Z,97145.02
2018-03-25T16:02:18.314Z,97146.16
2018-03-25T16:04:46.662Z,97149.69
2018-03-25T16:07:14.985Z,97152.80
2018-03-25T16:09:43.331Z,97146.42
2018-03-25T16:12:11.793Z,97152.16
2018-03-25T16:14:40.102Z,97154.75
2018-03-25T16:17:08.383Z,97158.49
2018-03-25T16:19:36.643Z,97158.87
2018-03-25T16:22:05.067Z,97159.53
2018-03-25T16:24:34.198Z,97163.63
2018-03-25T16:27:02.493Z,97164.09
2018-03-25T16:29:31.001Z,97171.98
2018-03-25T16:32:00.334Z,97169.32
2018-03-25T16:34:28.875Z,97180.16
2018-03-25T16:36:57.273Z,97178.85
2018-03-25T16:39:26.474Z,97179.36
2018-03-25T16:41:55.636Z,97183.95
2018-03-25T16:44:24.021Z,97185.51
2018-03-25T16:46:52.463Z,97184.89
2018-03-25T16:49:21.067Z,97189.41
2018-03-25T16:51:51.060Z,97195.89
2018-03-25T16:54:19.770Z,97202.11
2018-03-25T16:56:49.644Z,97202.14
2018-03-25T16:59:20.033Z,97200.21
2018-03-25T17:01:49.000Z,97205.28
2018-03-25T17:04:17.371Z,97205.54
2018-03-25T17:06:45.759Z,97202.52
2018-03-25T17:09:14.478Z,97209.28
2018-03-25T17:11:45.297Z,97210.57
2018-03-25T17:14:14.903Z,97211.22
2018-03-25T17:16:45.434Z,97220.03
2018-03-25T17:19:15.957Z,97218.20
2018-03-25T17:21:46.822Z,97223.59
2018-03-25T17:24:16.518Z,97233.55
2018-03-25T17:26:46.488Z,97235.38
2018-03-25T17:29:17.214Z,97240.02
2018-03-25T17:31:47.099Z,97244.92
2018-03-25T17:34:16.811Z,97247.41
2018-03-25T17:36:46.765Z,97250.19
2018-03-25T17:39:17.382Z,97250.98
2018-03-25T17:41:47.156Z,97253.97
2018-03-25T17:44:17.100Z,97260.30
2018-03-25T17:46:48.412Z,97261.83
2018-03-25T17:49:18.108Z,97265.37
2018-03-25T17:51:48.035Z,97260.83
2018-03-25T17:54:18.001Z,97269.11
2018-03-25T17:56:47.524Z,97267.58
2018-03-25T17:59:18.349Z,97274.73
2018-03-25T18:01:48.975Z,97274.11
2018-03-25T18:04:19.627Z,97279.02
2018-03-25T18:06:50.326Z,97285.09
2018-03-25T18:09:20.203Z,97298.09
2018-03-25T18:11:50.226Z,97293.89
2018-03-25T18:14:20.011Z,97303.60
2018-03-25T18:16:50.233Z,97308.11
2018-03-25T18:19:19.535Z,97309.34
2018-03-25T18:21:48.912Z,97316.53
2018-03-25T18:24:20.832Z,97319.13
2018-03-25T18:26:50.201Z,97325.30
2018-03-25T18:29:19.596Z,97325.28
2018-03-25T18:31:51.077Z,97326.98
2018-03-25T18:34:21.263Z,97330.22
2018-03-25T18:36:51.190Z,97330.25
2018-03-25T18:39:21.171Z,97337.51
2018-03-25T18:41:51.830Z,97333.78
2018-03-25T18:44:22.542Z,97336.48
2018-03-25T18:46:53.369Z,97337.54
2018-03-25T18:49:24.235Z,97338.39
2018-03-25T18:51:54.953Z,97338.67
2018-03-25T18:54:24.545Z,97348.05
2018-03-25T18:56:54.876Z,97349.81
2018-03-25T18:59:24.458Z,97354.54
2018-03-25T19:01:53.770Z,97361.70
2018-03-25T19:04:23.080Z,97363.92
2018-03-25T19:06:53.244Z,97366.70
2018-03-25T19:09:22.708Z,97367.02
2018-03-25T19:11:53.867Z,97370.72
2018-03-25T19:14:24.494Z,97375.31
2018-03-25T19:16:54.687Z,97381.47
2018-03-25T19:19:24.012Z,97384.89
2018-03-25T19:21:54.215Z,97389.05
2018-03-25T19:24:23.719Z,97392.02
2018-03-25T19:26:53.710Z,97395.84
2018-03-25T19:29:23.700Z,97397.48
2018-03-25T19:31:53.707Z,97395.88
2018-03-25T19:34:23.955Z,97392.88
2018-03-25T19:36:53.843Z,97392.77
2018-03-25T19:39:23.731Z,97401.52
2018-03-25T19:41:53.753Z,97401.22
2018-03-25T19:44:24.480Z,97405.84
2018-03-25T19:46:55.239Z,97412.73
2018-03-25T19:49:25.832Z,97417.37
2018-03-25T19:51:55.702Z,97412.25
2018-03-25T19:54:25.611Z,97412.98
2018-03-25T19:56:55.670Z,97418.11
2018-03-25T19:59:25.432Z,97418.16
2018-03-25T20:01:56.459Z,97412.05
2018-03-25T20:04:26.479Z,97414.49
2018-03-25T20:06:56.562Z,97411.91
2018-03-25T20:09:29.561Z,97414.86
2018-03-25T20:12:00.419Z,97416.20
2018-03-25T20:14:30.970Z,97419.45
2018-03-25T20:17:01.911Z,97424.53
2018-03-25T20:19:31.846Z,97422.33
2018-03-25T20:22:02.219Z,97419.28
2018-03-25T20:24:32.825Z,97419.66
2018-03-25T20:27:02.238Z,97419.66
2018-03-25T20:29:31.553Z,97420.27
2018-03-25T20:32:00.996Z,97430.66
2018-03-25T20:34:31.384Z,97437.04
2018-03-25T20:37:01.400Z,97434.14
2018-03-25T20:39:31.568Z,97438.39
2018-03-25T20:42:00.961Z,97435.93
2018-03-25T20:44:31.208Z,97437.23
2018-03-25T20:47:00.748Z,97435.06
2018-03-25T20:49:31.147Z,97445.95
2018-03-25T20:52:00.432Z,97446.44
2018-03-25T20:54:30.836Z,97446.02
2018-03-25T20:57:00.165Z,97448.95
2018-03-25T20:59:29.486Z,97453.19
2018-03-25T21:01:58.861Z,97449.82
2018-03-25T21:04:28.346Z,97457.49
2018-03-25T21:06:57.691Z,97449.00
2018-03-25T21:09:27.073Z,97446.52
2018-03-25T21:11:56.399Z,97445.23
2018-03-25T21:14:25.769Z,97455.87
2018-03-25T21:16:55.957Z,97455.04
2018-03-25T21:19:25.259Z,97451.68
2018-03-25T21:21:55.471Z,97461.09
2018-03-25T21:24:25.491Z,97461.53
2018-03-25T21:26:54.945Z,97466.59
2018-03-25T21:29:24.226Z,97468.30
2018-03-25T21:31:53.554Z,97472.93
2018-03-25T21:34:23.275Z,97468.27
2018-03-25T21:36:53.773Z,97471.64
2018-03-25T21:39:24.176Z,97472.05
2018-03-25T21:41:53.896Z,97468.99
2018-03-25T21:44:23.651Z,97472.26
2018-03-25T21:46:53.367Z,97475.03
2018-03-25T21:49:23.130Z,97474.59
2018-03-25T21:51:52.960Z,97471.77
2018-03-25T21:54:22.926Z,97479.92
2018-03-25T21:56:53.077Z,97473.88
2018-03-25T21:59:22.446Z,97472.20
2018-03-25T22:01:50.997Z,97475.09
2018-03-25T22:04:19.286Z,97475.38
2018-03-25T22:06:47.568Z,97481.67
2018-03-25T22:09:15.853Z,97482.09
2018-03-25T22:11:44.143Z,97482.17
2018-03-25T22:14:12.421Z,97482.69
2018-03-25T22:16:40.700Z,97491.21
2018-03-25T22:19:08.959Z,97488.31
2018-03-25T22:21:37.237Z,97495.09
2018-03-25T22:24:05.508Z,97495.05
2018-03-25T22:26:33.764Z,97488.69
2018-03-25T22:29:02.787Z,97491.13
2018-03-25T22:31:31.062Z,97482.23
2018-03-25T22:33:59.320Z,97486.92
2018-03-25T22:36:27.577Z,97488.19
2018-03-25T22:38:56.625Z,97487.34
2018-03-25T22:41:24.889Z,97486.08
2018-03-25T22:43:53.164Z,97497.08
2018-03-25T22:46:21.430Z,97497.48
2018-03-25T22:48:49.695Z,97493.20
2018-03-25T22:51:17.971Z,97505.45
2018-03-25T22:53:46.231Z,97500.52
2018-03-25T22:56:15.292Z,97503.14
2018-03-25T22:58:43.547Z,97505.69
2018-03-25T23:01:11.834Z,97504.81
2018-03-25T23:03:40.084Z,97506.41
2018-03-25T23:06:08.373Z,97506.60
2018-03-25T23:08:36.640Z,97507.77
2018-03-25T23:11:04.900Z,97509.48
2018-03-25T23:13:33.172Z,97512.03
2018-03-25T23:16:01.447Z,97509.45
2018-03-25T23:18:29.717Z,97508.42
2018-03-25T23:20:58.003Z,97508.89
2018-03-25T23:23:26.256Z,97507.95
2018-03-25T23:25:55.296Z,97509.83
2018-03-25T23:28:23.560Z,97512.92
2018-03-25T23:30:51.840Z,97504.19
2018-03-25T23:33:20.116Z,97506.06
2018-03-25T23:35:48.381Z,97509.49
2018-03-25T23:38:16.647Z,97507.05
2018-03-25T23:40:44.915Z,97508.33
2018-03-25T23:43:13.939Z,97509.28
2018-03-25T23:45:42.195Z,97509.33
2018-03-25T23:48:10.475Z,97511.77
2018-03-25T23:50:38.729Z,97515.38
2018-03-25T23:53:07.777Z,97517.92
2018-03-25T23:55:36.032Z,97505.73
2018-03-25T23:58:04.293Z,97514.80
